sensor_id;sensor_type;location;lat;lon;timestamp;P1;durP1;ratioP1;P2;durP2;ratioP2
18407;SDS011;9330;52.210;21.174;2023-07-22T00:01:27;5.50;;;4.50;;
18407;SDS011;9330;52.210;21.174;2023-07-22T00:03:54;5.28;;;4.75;;
18407;SDS011;9330;52.210;21.174;2023-07-22T00:06:22;6.63;;;4.72;;
18407;SDS011;9330;52.210;21.174;2023-07-22T00:08:50;5.05;;;4.63;;
18407;SDS011;9330;52.210;21.174;2023-07-22T00:11:17;4.95;;;4.25;;
18407;SDS011;9330;52.210;21.174;2023-07-22T00:13:45;5.80;;;3.95;;
18407;SDS011;9330;52.210;21.174;2023-07-22T00:16:11;5.22;;;4.70;;
18407;SDS011;9330;52.210;21.174;2023-07-22T00:18:38;4.60;;;4.20;;
18407;SDS011;9330;52.210;21.174;2023-07-22T00:21:05;5.20;;;4.30;;
18407;SDS011;9330;52.210;21.174;2023-07-22T00:23:34;5.00;;;4.55;;
18407;SDS011;9330;52.210;21.174;2023-07-22T00:26:02;6.07;;;4.47;;
18407;SDS011;9330;52.210;21.174;2023-07-22T00:28:29;4.68;;;4.28;;
18407;SDS011;9330;52.210;21.174;2023-07-22T00:30:56;6.30;;;4.78;;
18407;SDS011;9330;52.210;21.174;2023-07-22T00:33:23;6.63;;;5.85;;
18407;SDS011;9330;52.210;21.174;2023-07-22T00:35:50;5.88;;;5.38;;
18407;SDS011;9330;52.210;21.174;2023-07-22T00:38:18;5.75;;;5.25;;
18407;SDS011;9330;52.210;21.174;2023-07-22T00:40:45;6.10;;;5.50;;
18407;SDS011;9330;52.210;21.174;2023-07-22T00:43:14;6.45;;;5.85;;
18407;SDS011;9330;52.210;21.174;2023-07-22T00:45:41;6.40;;;5.80;;
18407;SDS011;9330;52.210;21.174;2023-07-22T00:48:08;5.95;;;5.43;;
18407;SDS011;9330;52.210;21.174;2023-07-22T00:50:35;5.70;;;5.20;;
18407;SDS011;9330;52.210;21.174;2023-07-22T00:53:04;6.03;;;5.53;;
18407;SDS011;9330;52.210;21.174;2023-07-22T00:55:31;6.07;;;5.47;;
18407;SDS011;9330;52.210;21.174;2023-07-22T00:58:00;5.82;;;5.22;;
18407;SDS011;9330;52.210;21.174;2023-07-22T01:00:28;6.53;;;5.50;;
18407;SDS011;9330;52.210;21.174;2023-07-22T01:02:55;6.15;;;5.65;;
18407;SDS011;9330;52.210;21.174;2023-07-22T01:05:22;6.05;;;5.55;;
18407;SDS011;9330;52.210;21.174;2023-07-22T01:07:50;5.90;;;5.38;;
18407;SDS011;9330;52.210;21.174;2023-07-22T01:10:18;6.47;;;5.03;;
18407;SDS011;9330;52.210;21.174;2023-07-22T01:12:45;5.43;;;4.95;;
18407;SDS011;9330;52.210;21.174;2023-07-22T01:15:11;5.53;;;5.05;;
18407;SDS011;9330;52.210;21.174;2023-07-22T01:17:40;6.45;;;5.43;;
18407;SDS011;9330;52.210;21.174;2023-07-22T01:20:07;5.80;;;5.25;;
18407;SDS011;9330;52.210;21.174;2023-07-22T01:22:35;5.65;;;5.13;;
18407;SDS011;9330;52.210;21.174;2023-07-22T01:25:04;5.97;;;5.47;;
18407;SDS011;9330;52.210;21.174;2023-07-22T01:27:32;6.40;;;5.80;;
18407;SDS011;9330;52.210;21.174;2023-07-22T01:29:59;6.88;;;6.20;;
18407;SDS011;9330;52.210;21.174;2023-07-22T01:32:28;5.88;;;5.38;;
18407;SDS011;9330;52.210;21.174;2023-07-22T01:34:55;6.35;;;5.68;;
18407;SDS011;9330;52.210;21.174;2023-07-22T01:37:22;6.70;;;6.10;;
18407;SDS011;9330;52.210;21.174;2023-07-22T01:39:50;5.75;;;5.25;;
18407;SDS011;9330;52.210;21.174;2023-07-22T01:42:19;6.03;;;5.53;;
18407;SDS011;9330;52.210;21.174;2023-07-22T01:44:46;6.40;;;5.90;;
18407;SDS011;9330;52.210;21.174;2023-07-22T01:47:13;6.22;;;5.63;;
18407;SDS011;9330;52.210;21.174;2023-07-22T01:49:39;6.40;;;5.80;;
18407;SDS011;9330;52.210;21.174;2023-07-22T01:52:06;6.10;;;5.60;;
18407;SDS011;9330;52.210;21.174;2023-07-22T01:54:33;6.78;;;6.18;;
18407;SDS011;9330;52.210;21.174;2023-07-22T01:57:00;5.97;;;5.47;;
18407;SDS011;9330;52.210;21.174;2023-07-22T01:59:28;6.68;;;6.07;;
18407;SDS011;9330;52.210;21.174;2023-07-22T02:01:55;6.53;;;5.93;;
18407;SDS011;9330;52.210;21.174;2023-07-22T02:04:22;6.93;;;6.20;;
18407;SDS011;9330;52.210;21.174;2023-07-22T02:06:49;6.65;;;6.05;;
18407;SDS011;9330;52.210;21.174;2023-07-22T02:09:16;6.20;;;5.60;;
18407;SDS011;9330;52.210;21.174;2023-07-22T02:11:42;6.95;;;6.28;;
18407;SDS011;9330;52.210;21.174;2023-07-22T02:14:09;6.30;;;5.70;;
18407;SDS011;9330;52.210;21.174;2023-07-22T02:16:37;6.75;;;6.15;;
18407;SDS011;9330;52.210;21.174;2023-07-22T02:19:04;6.93;;;6.25;;
18407;SDS011;9330;52.210;21.174;2023-07-22T02:21:31;6.90;;;6.32;;
18407;SDS011;9330;52.210;21.174;2023-07-22T02:23:58;7.28;;;6.50;;
18407;SDS011;9330;52.210;21.174;2023-07-22T02:26:25;7.53;;;6.72;;
18407;SDS011;9330;52.210;21.174;2023-07-22T02:28:51;7.05;;;6.47;;
18407;SDS011;9330;52.210;21.174;2023-07-22T02:31:19;6.90;;;6.40;;
18407;SDS011;9330;52.210;21.174;2023-07-22T02:33:48;6.93;;;6.32;;
18407;SDS011;9330;52.210;21.174;2023-07-22T02:36:15;7.13;;;6.53;;
18407;SDS011;9330;52.210;21.174;2023-07-22T02:38:42;7.13;;;6.47;;
18407;SDS011;9330;52.210;21.174;2023-07-22T02:41:09;6.75;;;6.13;;
18407;SDS011;9330;52.210;21.174;2023-07-22T02:43:36;7.45;;;6.80;;
18407;SDS011;9330;52.210;21.174;2023-07-22T02:46:04;7.60;;;6.95;;
18407;SDS011;9330;52.210;21.174;2023-07-22T02:48:32;7.90;;;7.18;;
18407;SDS011;9330;52.210;21.174;2023-07-22T02:51:03;7.63;;;6.95;;
18407;SDS011;9330;52.210;21.174;2023-07-22T02:53:30;7.55;;;6.95;;
18407;SDS011;9330;52.210;21.174;2023-07-22T02:55:57;7.53;;;6.82;;
18407;SDS011;9330;52.210;21.174;2023-07-22T02:58:24;7.68;;;6.97;;
18407;SDS011;9330;52.210;21.174;2023-07-22T03:00:51;7.32;;;6.70;;
18407;SDS011;9330;52.210;21.174;2023-07-22T03:03:17;7.88;;;7.15;;
18407;SDS011;9330;52.210;21.174;2023-07-22T03:05:45;7.45;;;6.85;;
18407;SDS011;9330;52.210;21.174;2023-07-22T03:08:13;7.80;;;7.10;;
18407;SDS011;9330;52.210;21.174;2023-07-22T03:10:40;8.02;;;7.32;;
18407;SDS011;9330;52.210;21.174;2023-07-22T03:13:09;7.95;;;7.20;;
18407;SDS011;9330;52.210;21.174;2023-07-22T03:15:35;7.47;;;6.88;;
18407;SDS011;9330;52.210;21.174;2023-07-22T03:18:02;7.57;;;6.88;;
18407;SDS011;9330;52.210;21.174;2023-07-22T03:20:30;8.07;;;7.35;;
18407;SDS011;9330;52.210;21.174;2023-07-22T03:22:56;7.68;;;6.82;;
18407;SDS011;9330;52.210;21.174;2023-07-22T03:25:25;8.10;;;7.40;;
18407;SDS011;9330;52.210;21.174;2023-07-22T03:27:52;8.32;;;7.40;;
18407;SDS011;9330;52.210;21.174;2023-07-22T03:30:20;7.78;;;7.13;;
18407;SDS011;9330;52.210;21.174;2023-07-22T03:32:48;8.10;;;7.40;;
18407;SDS011;9330;52.210;21.174;2023-07-22T03:35:16;7.85;;;7.15;;
18407;SDS011;9330;52.210;21.174;2023-07-22T03:37:43;8.20;;;7.50;;
18407;SDS011;9330;52.210;21.174;2023-07-22T03:40:10;8.93;;;8.18;;
18407;SDS011;9330;52.210;21.174;2023-07-22T03:42:44;7.60;;;6.95;;
18407;SDS011;9330;52.210;21.174;2023-07-22T03:45:11;8.73;;;7.93;;
18407;SDS011;9330;52.210;21.174;2023-07-22T03:47:38;9.13;;;8.32;;
18407;SDS011;9330;52.210;21.174;2023-07-22T03:50:05;8.15;;;7.45;;
18407;SDS011;9330;52.210;21.174;2023-07-22T03:52:33;8.70;;;8.00;;
18407;SDS011;9330;52.210;21.174;2023-07-22T03:55:00;8.05;;;7.35;;
18407;SDS011;9330;52.210;21.174;2023-07-22T03:57:28;8.35;;;7.55;;
18407;SDS011;9330;52.210;21.174;2023-07-22T03:59:57;8.15;;;7.45;;
18407;SDS011;9330;52.210;21.174;2023-07-22T04:02:24;8.43;;;7.72;;
18407;SDS011;9330;52.210;21.174;2023-07-22T04:04:52;8.50;;;7.70;;
18407;SDS011;9330;52.210;21.174;2023-07-22T04:07:20;8.95;;;8.15;;
18407;SDS011;9330;52.210;21.174;2023-07-22T04:09:47;8.70;;;8.00;;
18407;SDS011;9330;52.210;21.174;2023-07-22T04:12:14;8.90;;;7.95;;
18407;SDS011;9330;52.210;21.174;2023-07-22T04:14:41;9.02;;;8.23;;
18407;SDS011;9330;52.210;21.174;2023-07-22T04:17:09;8.45;;;7.75;;
18407;SDS011;9330;52.210;21.174;2023-07-22T04:19:36;9.35;;;7.57;;
18407;SDS011;9330;52.210;21.174;2023-07-22T04:22:04;8.23;;;7.53;;
18407;SDS011;9330;52.210;21.174;2023-07-22T04:24:31;8.25;;;7.55;;
18407;SDS011;9330;52.210;21.174;2023-07-22T04:26:58;8.75;;;7.95;;
18407;SDS011;9330;52.210;21.174;2023-07-22T04:29:25;9.65;;;8.75;;
18407;SDS011;9330;52.210;21.174;2023-07-22T04:31:56;9.50;;;7.55;;
18407;SDS011;9330;52.210;21.174;2023-07-22T04:34:25;8.40;;;7.60;;
18407;SDS011;9330;52.210;21.174;2023-07-22T04:36:55;8.60;;;7.80;;
18407;SDS011;9330;52.210;21.174;2023-07-22T04:39:22;8.73;;;7.90;;
18407;SDS011;9330;52.210;21.174;2023-07-22T04:41:49;7.53;;;6.90;;
18407;SDS011;9330;52.210;21.174;2023-07-22T04:44:16;8.95;;;8.15;;
18407;SDS011;9330;52.210;21.174;2023-07-22T04:46:43;8.45;;;7.60;;
18407;SDS011;9330;52.210;21.174;2023-07-22T04:49:10;8.50;;;7.80;;
18407;SDS011;9330;52.210;21.174;2023-07-22T04:51:39;9.23;;;8.32;;
18407;SDS011;9330;52.210;21.174;2023-07-22T04:54:06;8.70;;;7.90;;
18407;SDS011;9330;52.210;21.174;2023-07-22T04:56:33;9.30;;;8.02;;
18407;SDS011;9330;52.210;21.174;2023-07-22T04:59:00;8.73;;;7.93;;
18407;SDS011;9330;52.210;21.174;2023-07-22T05:01:28;9.30;;;8.40;;
18407;SDS011;9330;52.210;21.174;2023-07-22T05:03:55;8.40;;;7.60;;
18407;SDS011;9330;52.210;21.174;2023-07-22T05:06:23;7.30;;;6.70;;
18407;SDS011;9330;52.210;21.174;2023-07-22T05:08:51;8.20;;;7.50;;
18407;SDS011;9330;52.210;21.174;2023-07-22T05:11:18;8.40;;;7.70;;
18407;SDS011;9330;52.210;21.174;2023-07-22T05:13:45;8.75;;;7.88;;
18407;SDS011;9330;52.210;21.174;2023-07-22T05:16:12;7.90;;;7.20;;
18407;SDS011;9330;52.210;21.174;2023-07-22T05:18:40;7.75;;;7.05;;
18407;SDS011;9330;52.210;21.174;2023-07-22T05:21:07;7.57;;;6.85;;
18407;SDS011;9330;52.210;21.174;2023-07-22T05:23:33;8.48;;;6.63;;
18407;SDS011;9330;52.210;21.174;2023-07-22T05:26:02;7.07;;;6.47;;
18407;SDS011;9330;52.210;21.174;2023-07-22T05:28:28;7.35;;;6.68;;
18407;SDS011;9330;52.210;21.174;2023-07-22T05:30:55;6.55;;;5.95;;
18407;SDS011;9330;52.210;21.174;2023-07-22T05:33:22;6.45;;;5.85;;
18407;SDS011;9330;52.210;21.174;2023-07-22T05:35:49;8.40;;;6.00;;
18407;SDS011;9330;52.210;21.174;2023-07-22T05:38:16;6.97;;;6.28;;
18407;SDS011;9330;52.210;21.174;2023-07-22T05:40:43;6.05;;;5.43;;
18407;SDS011;9330;52.210;21.174;2023-07-22T05:43:12;5.93;;;5.43;;
18407;SDS011;9330;52.210;21.174;2023-07-22T05:45:38;7.53;;;5.40;;
18407;SDS011;9330;52.210;21.174;2023-07-22T05:48:05;6.32;;;5.72;;
18407;SDS011;9330;52.210;21.174;2023-07-22T05:50:32;6.13;;;5.57;;
18407;SDS011;9330;52.210;21.174;2023-07-22T05:52:59;5.88;;;5.28;;
18407;SDS011;9330;52.210;21.174;2023-07-22T05:55:26;5.60;;;4.93;;
18407;SDS011;9330;52.210;21.174;2023-07-22T05:57:52;5.43;;;4.90;;
18407;SDS011;9330;52.210;21.174;2023-07-22T06:00:21;6.63;;;4.97;;
18407;SDS011;9330;52.210;21.174;2023-07-22T06:02:48;5.32;;;4.82;;
18407;SDS011;9330;52.210;21.174;2023-07-22T06:05:15;5.97;;;4.85;;
18407;SDS011;9330;52.210;21.174;2023-07-22T06:07:42;5.30;;;4.80;;
18407;SDS011;9330;52.210;21.174;2023-07-22T06:10:09;5.25;;;4.75;;
18407;SDS011;9330;52.210;21.174;2023-07-22T06:12:36;5.20;;;4.70;;
18407;SDS011;9330;52.210;21.174;2023-07-22T06:15:04;4.93;;;4.20;;
18407;SDS011;9330;52.210;21.174;2023-07-22T06:17:33;6.50;;;5.10;;
18407;SDS011;9330;52.210;21.174;2023-07-22T06:20:00;4.78;;;4.38;;
18407;SDS011;9330;52.210;21.174;2023-07-22T06:22:27;4.43;;;4.03;;
18407;SDS011;9330;52.210;21.174;2023-07-22T06:24:54;4.32;;;3.95;;
18407;SDS011;9330;52.210;21.174;2023-07-22T06:27:21;5.95;;;4.40;;
18407;SDS011;9330;52.210;21.174;2023-07-22T06:29:48;6.03;;;4.07;;
18407;SDS011;9330;52.210;21.174;2023-07-22T06:32:15;4.63;;;3.80;;
18407;SDS011;9330;52.210;21.174;2023-07-22T06:34:43;3.75;;;3.45;;
18407;SDS011;9330;52.210;21.174;2023-07-22T06:37:10;4.35;;;3.95;;
18407;SDS011;9330;52.210;21.174;2023-07-22T06:39:37;3.72;;;3.40;;
18407;SDS011;9330;52.210;21.174;2023-07-22T06:42:05;4.97;;;3.67;;
18407;SDS011;9330;52.210;21.174;2023-07-22T06:44:32;5.15;;;3.70;;
18407;SDS011;9330;52.210;21.174;2023-07-22T06:46:59;4.10;;;3.13;;
18407;SDS011;9330;52.210;21.174;2023-07-22T06:49:26;3.50;;;3.20;;
18407;SDS011;9330;52.210;21.174;2023-07-22T06:51:54;3.78;;;3.13;;
18407;SDS011;9330;52.210;21.174;2023-07-22T06:54:22;3.55;;;3.25;;
18407;SDS011;9330;52.210;21.174;2023-07-22T06:56:49;3.20;;;2.90;;
18407;SDS011;9330;52.210;21.174;2023-07-22T06:59:16;3.17;;;2.67;;
18407;SDS011;9330;52.210;21.174;2023-07-22T07:01:43;3.22;;;2.75;;
18407;SDS011;9330;52.210;21.174;2023-07-22T07:04:10;2.75;;;2.55;;
18407;SDS011;9330;52.210;21.174;2023-07-22T07:06:36;3.17;;;2.90;;
18407;SDS011;9330;52.210;21.174;2023-07-22T07:09:05;4.30;;;3.15;;
18407;SDS011;9330;52.210;21.174;2023-07-22T07:11:32;3.80;;;3.40;;
18407;SDS011;9330;52.210;21.174;2023-07-22T07:13:59;3.30;;;3.00;;
18407;SDS011;9330;52.210;21.174;2023-07-22T07:16:26;3.83;;;2.92;;
18407;SDS011;9330;52.210;21.174;2023-07-22T07:18:54;3.85;;;2.20;;
18407;SDS011;9330;52.210;21.174;2023-07-22T07:21:21;3.67;;;2.78;;
18407;SDS011;9330;52.210;21.174;2023-07-22T07:23:48;5.55;;;2.60;;
18407;SDS011;9330;52.210;21.174;2023-07-22T07:26:17;2.63;;;2.42;;
18407;SDS011;9330;52.210;21.174;2023-07-22T07:28:45;2.05;;;1.90;;
18407;SDS011;9330;52.210;21.174;2023-07-22T07:31:12;3.30;;;2.28;;
18407;SDS011;9330;52.210;21.174;2023-07-22T07:33:39;3.50;;;2.17;;
18407;SDS011;9330;52.210;21.174;2023-07-22T07:36:06;2.72;;;2.33;;
18407;SDS011;9330;52.210;21.174;2023-07-22T07:38:32;2.42;;;1.80;;
18407;SDS011;9330;52.210;21.174;2023-07-22T07:41:06;3.28;;;2.33;;
18407;SDS011;9330;52.210;21.174;2023-07-22T07:43:37;2.78;;;2.30;;
18407;SDS011;9330;52.210;21.174;2023-07-22T07:46:14;2.30;;;2.10;;
18407;SDS011;9330;52.210;21.174;2023-07-22T07:48:44;2.15;;;2.00;;
18407;SDS011;9330;52.210;21.174;2023-07-22T07:51:12;2.88;;;2.50;;
18407;SDS011;9330;52.210;21.174;2023-07-22T07:53:39;3.25;;;2.20;;
18407;SDS011;9330;52.210;21.174;2023-07-22T07:56:06;2.92;;;2.72;;
18407;SDS011;9330;52.210;21.174;2023-07-22T08:04:00;4.95;;;2.45;;
18407;SDS011;9330;52.210;21.174;2023-07-22T08:09:55;2.83;;;2.45;;
18407;SDS011;9330;52.210;21.174;2023-07-22T08:12:23;3.08;;;2.40;;
18407;SDS011;9330;52.210;21.174;2023-07-22T08:14:51;4.57;;;2.70;;
18407;SDS011;9330;52.210;21.174;2023-07-22T08:17:20;3.28;;;2.25;;
18407;SDS011;9330;52.210;21.174;2023-07-22T08:19:47;3.67;;;2.00;;
18407;SDS011;9330;52.210;21.174;2023-07-22T08:22:14;2.58;;;2.13;;
18407;SDS011;9330;52.210;21.174;2023-07-22T08:24:41;2.67;;;2.00;;
18407;SDS011;9330;52.210;21.174;2023-07-22T08:27:08;3.45;;;1.95;;
18407;SDS011;9330;52.210;21.174;2023-07-22T08:29:35;3.30;;;1.88;;
18407;SDS011;9330;52.210;21.174;2023-07-22T08:32:02;2.95;;;2.10;;
18407;SDS011;9330;52.210;21.174;2023-07-22T08:34:31;2.70;;;2.03;;
18407;SDS011;9330;52.210;21.174;2023-07-22T08:36:58;4.03;;;1.90;;
18407;SDS011;9330;52.210;21.174;2023-07-22T08:39:25;1.70;;;1.60;;
18407;SDS011;9330;52.210;21.174;2023-07-22T08:41:51;3.80;;;1.70;;
18407;SDS011;9330;52.210;21.174;2023-07-22T08:44:21;2.13;;;1.90;;
18407;SDS011;9330;52.210;21.174;2023-07-22T08:46:51;2.50;;;1.67;;
18407;SDS011;9330;52.210;21.174;2023-07-22T08:49:21;2.95;;;1.90;;
18407;SDS011;9330;52.210;21.174;2023-07-22T08:51:50;3.10;;;1.60;;
18407;SDS011;9330;52.210;21.174;2023-07-22T08:54:18;2.17;;;1.55;;
18407;SDS011;9330;52.210;21.174;2023-07-22T08:56:45;2.75;;;1.65;;
18407;SDS011;9330;52.210;21.174;2023-07-22T08:59:12;2.90;;;1.30;;
18407;SDS011;9330;52.210;21.174;2023-07-22T09:01:40;4.85;;;1.73;;
18407;SDS011;9330;52.210;21.174;2023-07-22T09:04:07;2.08;;;1.65;;
18407;SDS011;9330;52.210;21.174;2023-07-22T09:06:34;2.15;;;1.52;;
18407;SDS011;9330;52.210;21.174;2023-07-22T09:09:03;2.13;;;1.70;;
18407;SDS011;9330;52.210;21.174;2023-07-22T09:11:33;1.67;;;1.40;;
18407;SDS011;9330;52.210;21.174;2023-07-22T09:14:01;4.82;;;1.58;;
18407;SDS011;9330;52.210;21.174;2023-07-22T09:16:29;2.17;;;1.65;;
18407;SDS011;9330;52.210;21.174;2023-07-22T09:18:57;1.63;;;1.33;;
18407;SDS011;9330;52.210;21.174;2023-07-22T09:21:24;2.00;;;1.42;;
18407;SDS011;9330;52.210;21.174;2023-07-22T09:23:53;2.38;;;1.55;;
18407;SDS011;9330;52.210;21.174;2023-07-22T09:26:21;2.35;;;1.45;;
18407;SDS011;9330;52.210;21.174;2023-07-22T09:28:48;2.70;;;1.30;;
18407;SDS011;9330;52.210;21.174;2023-07-22T09:31:20;3.28;;;1.80;;
18407;SDS011;9330;52.210;21.174;2023-07-22T09:33:47;1.83;;;1.50;;
18407;SDS011;9330;52.210;21.174;2023-07-22T09:36:15;2.33;;;1.48;;
18407;SDS011;9330;52.210;21.174;2023-07-22T09:38:43;1.95;;;1.60;;
18407;SDS011;9330;52.210;21.174;2023-07-22T09:41:10;1.45;;;1.20;;
18407;SDS011;9330;52.210;21.174;2023-07-22T09:43:40;2.40;;;1.70;;
18407;SDS011;9330;52.210;21.174;2023-07-22T09:46:07;3.10;;;1.27;;
18407;SDS011;9330;52.210;21.174;2023-07-22T09:48:41;2.53;;;1.55;;
18407;SDS011;9330;52.210;21.174;2023-07-22T09:51:13;1.92;;;1.50;;
18407;SDS011;9330;52.210;21.174;2023-07-22T09:53:47;3.53;;;1.70;;
18407;SDS011;9330;52.210;21.174;2023-07-22T09:56:26;1.83;;;1.33;;
18407;SDS011;9330;52.210;21.174;2023-07-22T09:58:54;1.77;;;1.63;;
18407;SDS011;9330;52.210;21.174;2023-07-22T10:01:23;3.33;;;1.90;;
18407;SDS011;9330;52.210;21.174;2023-07-22T10:03:51;1.75;;;1.60;;
18407;SDS011;9330;52.210;21.174;2023-07-22T10:06:21;3.03;;;1.90;;
18407;SDS011;9330;52.210;21.174;2023-07-22T10:08:53;2.20;;;1.58;;
18407;SDS011;9330;52.210;21.174;2023-07-22T10:11:22;2.55;;;1.65;;
18407;SDS011;9330;52.210;21.174;2023-07-22T10:13:54;2.55;;;1.67;;
18407;SDS011;9330;52.210;21.174;2023-07-22T10:16:22;2.08;;;1.60;;
18407;SDS011;9330;52.210;21.174;2023-07-22T10:18:50;2.78;;;1.85;;
18407;SDS011;9330;52.210;21.174;2023-07-22T10:21:17;2.47;;;1.70;;
18407;SDS011;9330;52.210;21.174;2023-07-22T10:23:45;1.92;;;1.30;;
18407;SDS011;9330;52.210;21.174;2023-07-22T10:26:14;1.83;;;1.58;;
18407;SDS011;9330;52.210;21.174;2023-07-22T10:28:43;1.52;;;1.40;;
18407;SDS011;9330;52.210;21.174;2023-07-22T10:31:13;2.33;;;1.77;;
18407;SDS011;9330;52.210;21.174;2023-07-22T10:33:44;1.95;;;1.42;;
18407;SDS011;9330;52.210;21.174;2023-07-22T10:36:13;1.45;;;1.20;;
18407;SDS011;9330;52.210;21.174;2023-07-22T10:38:42;0.98;;;0.85;;
18407;SDS011;9330;52.210;21.174;2023-07-22T10:41:12;1.67;;;1.25;;
18407;SDS011;9330;52.210;21.174;2023-07-22T10:43:42;2.88;;;1.08;;
18407;SDS011;9330;52.210;21.174;2023-07-22T10:46:30;1.55;;;1.10;;
18407;SDS011;9330;52.210;21.174;2023-07-22T10:49:06;1.42;;;1.10;;
18407;SDS011;9330;52.210;21.174;2023-07-22T10:51:36;0.93;;;0.82;;
18407;SDS011;9330;52.210;21.174;2023-07-22T10:54:04;2.42;;;1.13;;
18407;SDS011;9330;52.210;21.174;2023-07-22T10:56:37;1.20;;;0.90;;
18407;SDS011;9330;52.210;21.174;2023-07-22T10:59:04;1.90;;;1.10;;
18407;SDS011;9330;52.210;21.174;2023-07-22T11:01:38;2.83;;;1.10;;
18407;SDS011;9330;52.210;21.174;2023-07-22T11:04:22;1.17;;;0.90;;
18407;SDS011;9330;52.210;21.174;2023-07-22T11:06:56;1.67;;;1.15;;
18407;SDS011;9330;52.210;21.174;2023-07-22T11:09:34;2.50;;;1.30;;
18407;SDS011;9330;52.210;21.174;2023-07-22T11:12:05;0.98;;;0.82;;
18407;SDS011;9330;52.210;21.174;2023-07-22T11:14:34;1.45;;;1.10;;
18407;SDS011;9330;52.210;21.174;2023-07-22T11:17:07;2.53;;;1.10;;
18407;SDS011;9330;52.210;21.174;2023-07-22T11:19:34;0.90;;;0.80;;
18407;SDS011;9330;52.210;21.174;2023-07-22T11:22:01;1.15;;;1.00;;
18407;SDS011;9330;52.210;21.174;2023-07-22T11:24:28;2.67;;;1.23;;
18407;SDS011;9330;52.210;21.174;2023-07-22T11:26:55;1.85;;;1.25;;
18407;SDS011;9330;52.210;21.174;2023-07-22T11:29:22;1.85;;;1.10;;
18407;SDS011;9330;52.210;21.174;2023-07-22T11:31:51;1.38;;;1.27;;
18407;SDS011;9330;52.210;21.174;2023-07-22T11:34:19;2.05;;;1.20;;
18407;SDS011;9330;52.210;21.174;2023-07-22T11:36:48;2.25;;;1.08;;
18407;SDS011;9330;52.210;21.174;2023-07-22T11:39:17;1.20;;;1.10;;
18407;SDS011;9330;52.210;21.174;2023-07-22T11:41:48;2.13;;;1.20;;
18407;SDS011;9330;52.210;21.174;2023-07-22T11:44:16;1.27;;;0.90;;
18407;SDS011;9330;52.210;21.174;2023-07-22T11:46:48;2.88;;;1.30;;
18407;SDS011;9330;52.210;21.174;2023-07-22T11:49:27;1.63;;;0.85;;
18407;SDS011;9330;52.210;21.174;2023-07-22T11:51:55;1.85;;;1.10;;
18407;SDS011;9330;52.210;21.174;2023-07-22T11:54:24;1.10;;;1.00;;
18407;SDS011;9330;52.210;21.174;2023-07-22T11:56:51;1.90;;;1.20;;
18407;SDS011;9330;52.210;21.174;2023-07-22T11:59:31;1.10;;;0.98;;
18407;SDS011;9330;52.210;21.174;2023-07-22T12:01:59;2.03;;;1.10;;
18407;SDS011;9330;52.210;21.174;2023-07-22T12:04:28;1.27;;;0.95;;
18407;SDS011;9330;52.210;21.174;2023-07-22T12:06:55;1.30;;;1.20;;
18407;SDS011;9330;52.210;21.174;2023-07-22T12:09:22;2.22;;;1.30;;
18407;SDS011;9330;52.210;21.174;2023-07-22T12:11:54;1.35;;;1.00;;
18407;SDS011;9330;52.210;21.174;2023-07-22T12:14:22;2.47;;;1.30;;
18407;SDS011;9330;52.210;21.174;2023-07-22T12:16:52;1.40;;;1.15;;
18407;SDS011;9330;52.210;21.174;2023-07-22T12:19:22;4.70;;;1.60;;
18407;SDS011;9330;52.210;21.174;2023-07-22T12:21:51;2.95;;;1.30;;
18407;SDS011;9330;52.210;21.174;2023-07-22T12:24:18;1.92;;;1.50;;
18407;SDS011;9330;52.210;21.174;2023-07-22T12:26:45;2.90;;;1.25;;
18407;SDS011;9330;52.210;21.174;2023-07-22T12:29:12;1.88;;;1.30;;
18407;SDS011;9330;52.210;21.174;2023-07-22T12:31:39;2.00;;;1.40;;
18407;SDS011;9330;52.210;21.174;2023-07-22T12:34:06;1.63;;;1.40;;
18407;SDS011;9330;52.210;21.174;2023-07-22T12:36:33;2.00;;;1.13;;
18407;SDS011;9330;52.210;21.174;2023-07-22T12:39:01;1.92;;;1.27;;
18407;SDS011;9330;52.210;21.174;2023-07-22T12:41:28;1.90;;;1.63;;
18407;SDS011;9330;52.210;21.174;2023-07-22T12:43:55;2.50;;;1.15;;
18407;SDS011;9330;52.210;21.174;2023-07-22T12:46:22;1.40;;;1.20;;
18407;SDS011;9330;52.210;21.174;2023-07-22T12:48:49;1.77;;;1.40;;
18407;SDS011;9330;52.210;21.174;2023-07-22T12:51:16;3.03;;;1.30;;
18407;SDS011;9330;52.210;21.174;2023-07-22T12:53:43;1.38;;;1.20;;
18407;SDS011;9330;52.210;21.174;2023-07-22T12:56:12;1.80;;;1.30;;
18407;SDS011;9330;52.210;21.174;2023-07-22T12:58:39;1.52;;;1.20;;
18407;SDS011;9330;52.210;21.174;2023-07-22T13:01:06;2.85;;;1.27;;
18407;SDS011;9330;52.210;21.174;2023-07-22T13:03:32;2.72;;;1.40;;
18407;SDS011;9330;52.210;21.174;2023-07-22T13:05:59;1.70;;;1.40;;
18407;SDS011;9330;52.210;21.174;2023-07-22T13:08:26;2.38;;;1.38;;
18407;SDS011;9330;52.210;21.174;2023-07-22T13:10:53;2.60;;;1.30;;
18407;SDS011;9330;52.210;21.174;2023-07-22T13:13:22;2.20;;;1.35;;
18407;SDS011;9330;52.210;21.174;2023-07-22T13:15:48;2.20;;;1.40;;
18407;SDS011;9330;52.210;21.174;2023-07-22T13:18:15;1.40;;;1.30;;
18407;SDS011;9330;52.210;21.174;2023-07-22T13:20:42;1.60;;;1.50;;
18407;SDS011;9330;52.210;21.174;2023-07-22T13:23:09;3.20;;;1.48;;
18407;SDS011;9330;52.210;21.174;2023-07-22T13:25:36;1.30;;;1.13;;
18407;SDS011;9330;52.210;21.174;2023-07-22T13:28:04;1.50;;;1.40;;
18407;SDS011;9330;52.210;21.174;2023-07-22T13:30:33;2.15;;;1.20;;
18407;SDS011;9330;52.210;21.174;2023-07-22T13:33:00;2.33;;;1.40;;
18407;SDS011;9330;52.210;21.174;2023-07-22T13:35:27;1.85;;;1.42;;
18407;SDS011;9330;52.210;21.174;2023-07-22T13:37:54;1.50;;;1.40;;
18407;SDS011;9330;52.210;21.174;2023-07-22T13:40:21;1.55;;;1.20;;
18407;SDS011;9330;52.210;21.174;2023-07-22T13:42:48;2.22;;;1.20;;
18407;SDS011;9330;52.210;21.174;2023-07-22T13:45:14;1.60;;;1.45;;
18407;SDS011;9330;52.210;21.174;2023-07-22T13:47:43;2.90;;;1.48;;
18407;SDS011;9330;52.210;21.174;2023-07-22T13:50:10;2.35;;;1.52;;
18407;SDS011;9330;52.210;21.174;2023-07-22T13:52:36;1.30;;;1.20;;
18407;SDS011;9330;52.210;21.174;2023-07-22T13:55:06;3.72;;;1.58;;
18407;SDS011;9330;52.210;21.174;2023-07-22T13:57:34;1.73;;;1.33;;
18407;SDS011;9330;52.210;21.174;2023-07-22T14:00:01;2.03;;;1.50;;
18407;SDS011;9330;52.210;21.174;2023-07-22T14:02:32;1.33;;;1.23;;
18407;SDS011;9330;52.210;21.174;2023-07-22T14:05:00;1.70;;;1.30;;
18407;SDS011;9330;52.210;21.174;2023-07-22T14:07:27;4.10;;;1.33;;
18407;SDS011;9330;52.210;21.174;2023-07-22T14:09:53;1.30;;;1.10;;
18407;SDS011;9330;52.210;21.174;2023-07-22T14:12:20;1.50;;;1.30;;
18407;SDS011;9330;52.210;21.174;2023-07-22T14:14:47;2.38;;;1.40;;
18407;SDS011;9330;52.210;21.174;2023-07-22T14:17:14;3.15;;;1.40;;
18407;SDS011;9330;52.210;21.174;2023-07-22T14:19:41;2.50;;;1.55;;
18407;SDS011;9330;52.210;21.174;2023-07-22T14:22:09;2.50;;;1.50;;
18407;SDS011;9330;52.210;21.174;2023-07-22T14:24:36;2.10;;;1.30;;
18407;SDS011;9330;52.210;21.174;2023-07-22T14:27:03;1.88;;;1.42;;
18407;SDS011;9330;52.210;21.174;2023-07-22T14:29:30;3.60;;;1.35;;
18407;SDS011;9330;52.210;21.174;2023-07-22T14:31:57;1.90;;;1.50;;
18407;SDS011;9330;52.210;21.174;2023-07-22T14:34:24;2.58;;;1.55;;
18407;SDS011;9330;52.210;21.174;2023-07-22T14:36:51;2.67;;;1.40;;
18407;SDS011;9330;52.210;21.174;2023-07-22T14:39:19;2.08;;;1.48;;
18407;SDS011;9330;52.210;21.174;2023-07-22T14:41:46;2.47;;;1.50;;
18407;SDS011;9330;52.210;21.174;2023-07-22T14:44:13;1.80;;;1.52;;
18407;SDS011;9330;52.210;21.174;2023-07-22T14:46:40;3.35;;;1.50;;
18407;SDS011;9330;52.210;21.174;2023-07-22T14:49:06;1.70;;;1.60;;
18407;SDS011;9330;52.210;21.174;2023-07-22T14:51:34;1.63;;;1.52;;
18407;SDS011;9330;52.210;21.174;2023-07-22T14:54:02;1.92;;;1.60;;
18407;SDS011;9330;52.210;21.174;2023-07-22T14:56:30;2.70;;;1.77;;
18407;SDS011;9330;52.210;21.174;2023-07-22T14:58:58;2.22;;;1.38;;
18407;SDS011;9330;52.210;21.174;2023-07-22T15:01:24;1.33;;;1.23;;